createdAt,value
2019-04-20T00:02:25.421Z,100970.44
2019-04-20T00:06:42.935Z,100974.44
2019-04-20T00:10:52.977Z,100970.69
2019-04-20T00:14:54.194Z,100973.04
2019-04-20T00:19:04.949Z,100985.45
2019-04-20T00:23:35.245Z,100989.47
2019-04-20T00:28:17.683Z,100992.56
2019-04-20T00:32:18.565Z,100990.17
2019-04-20T00:36:20.165Z,100999.31
2019-04-20T00:40:30.570Z,100995.16
2019-04-20T00:44:41.279Z,101007.77
2019-04-20T00:48:55.843Z,101016.50
2019-04-20T00:53:07.692Z,101007.67
2019-04-20T00:57:18.219Z,101000.05
2019-04-20T01:01:35.934Z,101009.87
2019-04-20T01:05:58.426Z,101015.39
2019-04-20T01:10:13.196Z,101021.48
2019-04-20T01:14:27.356Z,101023.31
2019-04-20T01:18:30.658Z,101017.28
2019-04-20T01:22:50.490Z,101008.50
2019-04-20T01:26:54.868Z,101009.38
2019-04-20T01:31:12.711Z,101001.00
2019-04-20T01:35:25.238Z,100983.70
2019-04-20T01:39:28.342Z,100975.69
2019-04-20T01:43:29.108Z,100974.36
2019-04-20T01:47:45.439Z,100966.35
2019-04-20T01:51:57.715Z,100965.95
2019-04-20T01:56:15.512Z,100954.27
2019-04-20T02:00:44.993Z,100964.45
2019-04-20T02:05:02.945Z,100955.36
2019-04-20T02:09:13.635Z,100951.58
2019-04-20T02:13:19.571Z,100940.70
2019-04-20T02:17:36.927Z,100928.77
2019-04-20T02:21:51.677Z,100934.31
2019-04-20T02:25:47.984Z,100939.52
2019-04-20T02:30:21.849Z,100947.92
2019-04-20T02:47:39.367Z,100917.61
2019-04-20T02:51:39.355Z,100912.75
2019-04-20T03:03:37.656Z,100917.36
2019-04-20T03:07:57.232Z,100909.23
2019-04-20T03:16:16.750Z,100903.23
2019-04-20T03:20:28.928Z,100911.82
2019-04-20T03:24:46.784Z,100906.65
2019-04-20T03:29:01.076Z,100895.99
2019-04-20T03:33:35.277Z,100909.72
2019-04-20T03:37:34.569Z,100920.78
2019-04-20T03:41:24.482Z,100921.27
2019-04-20T03:45:31.447Z,100918.50
2019-04-20T03:49:59.534Z,100924.41
2019-04-20T03:54:33.260Z,100927.17
2019-04-20T03:59:08.737Z,100931.09
2019-04-20T04:03:36.137Z,100943.07
2019-04-20T04:07:26.793Z,100950.00
2019-04-20T04:11:43.511Z,100948.15
2019-04-20T04:15:47.850Z,100950.02
2019-04-20T04:19:55.754Z,100956.34
2019-04-20T04:24:10.720Z,100956.14
2019-04-20T04:28:21.089Z,100950.97
2019-04-20T04:33:00.406Z,100961.84
2019-04-20T04:36:50.127Z,100968.42
2019-04-20T04:41:06.471Z,100954.45
2019-04-20T04:44:57.610Z,100953.44
2019-04-20T04:49:05.335Z,100952.68
2019-04-20T04:53:20.623Z,100952.49
2019-04-20T04:57:17.667Z,100957.32
2019-04-20T05:01:29.442Z,100956.92
2019-04-20T05:06:01.896Z,100954.38
2019-04-20T05:09:50.640Z,100964.88
2019-04-20T05:14:05.204Z,100964.70
2019-04-20T05:18:34.687Z,100964.05
2019-04-20T05:22:41.550Z,100962.38
2019-04-20T05:26:56.876Z,100962.06
2019-04-20T05:30:48.620Z,100952.81
2019-04-20T05:35:16.053Z,100964.01
2019-04-20T05:39:29.788Z,100964.55
2019-04-20T05:43:36.269Z,100963.36
2019-04-20T05:47:47.741Z,100969.30
2019-04-20T05:51:54.427Z,100969.33
2019-04-20T05:56:02.609Z,100969.43
2019-04-20T06:00:21.803Z,100966.81
2019-04-20T06:04:46.918Z,100974.69
2019-04-20T06:08:51.244Z,100974.34
2019-04-20T06:12:45.881Z,100964.58
2019-04-20T06:17:11.278Z,100961.72
2019-04-20T06:21:25.259Z,100960.26
2019-04-20T06:25:45.654Z,100962.07
2019-04-20T06:29:48.360Z,100962.46
2019-04-20T06:39:00.544Z,100965.10
2019-04-20T06:42:58.855Z,100963.59
2019-04-20T06:51:23.663Z,100952.81
2019-04-20T06:55:34.716Z,100955.84
2019-04-20T06:59:56.485Z,100951.14
2019-04-20T07:04:00.405Z,100954.22
2019-04-20T07:08:16.757Z,100960.27
2019-04-20T07:12:09.420Z,100958.17
2019-04-20T07:16:44.654Z,100959.34
2019-04-20T07:21:22.993Z,100960.94
2019-04-20T07:25:26.701Z,100968.48
2019-04-20T07:29:41.128Z,100961.03
2019-04-20T07:33:46.467Z,100963.13
2019-04-20T07:38:18.230Z,100973.61
2019-04-20T07:42:08.507Z,100970.81
2019-04-20T07:46:20.790Z,100965.29
2019-04-20T07:50:21.854Z,100973.77
2019-04-20T07:54:49.006Z,100972.44
2019-04-20T07:58:34.823Z,100968.77
2019-04-20T08:03:18.366Z,100971.16
2019-04-20T08:07:07.408Z,100972.11
2019-04-20T08:11:32.080Z,100987.47
2019-04-20T08:19:53.601Z,100973.41
2019-04-20T08:24:02.666Z,100973.06
2019-04-20T08:27:57.560Z,100986.33
2019-04-20T08:32:38.954Z,100980.30
2019-04-20T08:36:51.394Z,100966.08
2019-04-20T08:40:57.422Z,100965.25
2019-04-20T08:45:19.353Z,100961.36
2019-04-20T08:49:25.180Z,100974.81
2019-04-20T08:53:30.818Z,100980.13
2019-04-20T08:57:20.166Z,100983.20
2019-04-20T09:01:30.847Z,100978.45
2019-04-20T09:05:49.982Z,100972.11
2019-04-20T09:10:11.364Z,100972.30
2019-04-20T09:14:16.306Z,100965.58
2019-04-20T09:18:36.436Z,100960.45
2019-04-20T09:22:50.644Z,100965.97
2019-04-20T09:27:07.686Z,100969.17
2019-04-20T09:31:35.660Z,100970.81
2019-04-20T09:35:49.583Z,100964.55
2019-04-20T09:40:07.912Z,100974.03
2019-04-20T09:44:00.376Z,100973.84
2019-04-20T09:48:15.751Z,100970.45
2019-04-20T09:52:32.287Z,100968.82
2019-04-20T09:56:39.614Z,100967.28
2019-04-20T10:00:59.432Z,100977.33
2019-04-20T10:04:55.639Z,100975.65
2019-04-20T10:09:05.144Z,100970.48
2019-04-20T10:13:13.766Z,100982.13
2019-04-20T10:17:21.538Z,100979.18
2019-04-20T10:21:29.880Z,100980.42
2019-04-20T10:25:38.408Z,100982.25
2019-04-20T10:29:47.352Z,100981.12
2019-04-20T10:33:55.698Z,100982.55
2019-04-20T10:38:12.053Z,100997.40
2019-04-20T10:42:20.515Z,100983.75
2019-04-20T10:46:28.939Z,100990.75
2019-04-20T10:50:36.948Z,100991.17
2019-04-20T10:54:44.860Z,100981.23
2019-04-20T10:58:53.830Z,100974.14
2019-04-20T11:03:01.757Z,100987.47
2019-04-20T11:07:10.837Z,100985.06
2019-04-20T11:11:26.159Z,100980.72
2019-04-20T11:15:28.325Z,101005.88
2019-04-20T11:19:37.103Z,100990.94
2019-04-20T11:23:46.570Z,101002.50
2019-04-20T11:27:56.300Z,100994.80
2019-04-20T11:32:05.490Z,100988.55
2019-04-20T11:36:13.186Z,100996.09
2019-04-20T11:40:21.487Z,100994.16
2019-04-20T11:44:31.234Z,100988.67
2019-04-20T11:48:39.524Z,100999.28
2019-04-20T11:52:49.946Z,100999.27
2019-04-20T11:56:59.449Z,100995.38
2019-04-20T12:01:29.032Z,100992.78
2019-04-20T12:05:42.850Z,100999.86
2019-04-20T12:09:49.496Z,100996.58
2019-04-20T12:13:58.667Z,100992.66
2019-04-20T12:18:07.574Z,100999.75
2019-04-20T12:22:16.044Z,100994.61
2019-04-20T12:26:24.842Z,100995.09
2019-04-20T12:30:33.469Z,100995.09
2019-04-20T12:34:41.455Z,100997.56
2019-04-20T12:38:49.116Z,100991.39
2019-04-20T12:42:57.270Z,100993.55
2019-04-20T12:47:05.752Z,100991.39
2019-04-20T12:51:15.482Z,100992.61
2019-04-20T12:55:23.391Z,100991.31
2019-04-20T12:59:31.670Z,100986.02
2019-04-20T13:03:41.456Z,100981.58
2019-04-20T13:07:55.888Z,100978.67
2019-04-20T13:12:10.600Z,100982.55
2019-04-20T13:16:34.741Z,100983.72
2019-04-20T13:20:43.911Z,100986.61
2019-04-20T13:24:52.828Z,100987.98
2019-04-20T13:29:02.264Z,100989.96
2019-04-20T13:33:10.171Z,100993.08
2019-04-20T13:37:18.089Z,100991.31
2019-04-20T13:41:27.587Z,100992.09
2019-04-20T13:45:35.581Z,100996.73
2019-04-20T13:49:45.086Z,100995.33
2019-04-20T13:53:55.248Z,100989.89
2019-04-20T13:58:25.765Z,101000.12
2019-04-20T14:02:44.823Z,101002.77
2019-04-20T14:06:55.295Z,101007.28
2019-04-20T14:11:03.237Z,101011.89
2019-04-20T14:15:13.138Z,101005.70
2019-04-20T14:19:21.263Z,101013.02
2019-04-20T14:23:30.826Z,101013.68
2019-04-20T14:27:39.059Z,101013.62
2019-04-20T14:31:48.105Z,101013.91
2019-04-20T14:35:56.928Z,101009.52
2019-04-20T14:40:06.158Z,101013.34
2019-04-20T14:44:14.264Z,101012.23
2019-04-20T14:48:22.764Z,101011.89
2019-04-20T14:52:31.857Z,101020.16
2019-04-20T14:56:41.193Z,101015.34
2019-04-20T15:00:58.451Z,101021.46
2019-04-20T15:05:07.454Z,101017.66
2019-04-20T15:09:16.910Z,101018.73
2019-04-20T15:13:26.660Z,101025.14
2019-04-20T15:17:41.676Z,101026.91
2019-04-20T15:21:51.476Z,101030.60
2019-04-20T15:26:00.246Z,101032.05
2019-04-20T15:30:09.347Z,101029.61
2019-04-20T15:34:17.485Z,101032.75
2019-04-20T15:38:25.183Z,101033.40
2019-04-20T15:42:33.296Z,101038.09
2019-04-20T15:46:41.663Z,101034.11
2019-04-20T15:50:49.983Z,101036.28
2019-04-20T15:55:01.938Z,101037.88
2019-04-20T15:59:08.418Z,101041.48
2019-04-20T16:03:21.394Z,101037.09
2019-04-20T16:07:32.903Z,101044.85
2019-04-20T16:11:41.171Z,101048.76
2019-04-20T16:15:49.755Z,101050.71
2019-04-20T16:20:08.014Z,101057.73
2019-04-20T16:24:12.981Z,101054.47
2019-04-20T16:28:21.660Z,101055.30
2019-04-20T16:32:30.354Z,101057.58
2019-04-20T16:36:38.924Z,101065.87
2019-04-20T16:40:48.329Z,101061.43
2019-04-20T16:44:56.979Z,101073.19
2019-04-20T16:49:05.214Z,101076.42
2019-04-20T16:53:14.919Z,101077.00
2019-04-20T16:57:23.671Z,101082.67
2019-04-20T17:01:31.899Z,101085.13
2019-04-20T17:05:41.174Z,101088.18
2019-04-20T17:09:49.724Z,101095.59
2019-04-20T17:14:01.655Z,101097.25
2019-04-20T17:18:09.621Z,101099.15
2019-04-20T17:22:17.440Z,101098.77
2019-04-20T17:26:35.024Z,101109.95
2019-04-20T17:30:57.248Z,101104.20
2019-04-20T17:35:17.786Z,101124.23
2019-04-20T17:39:26.110Z,101122.85
2019-04-20T17:43:33.159Z,101124.40
2019-04-20T17:47:50.183Z,101124.09
2019-04-20T17:52:11.715Z,101124.67
2019-04-20T17:55:55.219Z,101128.73
2019-04-20T18:00:15.116Z,101131.17
2019-04-20T18:04:57.401Z,101130.14
2019-04-20T18:08:57.848Z,101131.19
2019-04-20T18:12:51.950Z,101126.05
2019-04-20T18:17:24.346Z,101128.45
2019-04-20T18:21:45.588Z,101128.28
2019-04-20T18:26:17.191Z,101124.11
2019-04-20T18:30:23.938Z,101130.93
2019-04-20T18:34:56.296Z,101135.83
2019-04-20T18:39:06.608Z,101133.95
2019-04-20T18:43:21.792Z,101139.09
2019-04-20T18:47:45.775Z,101135.81
2019-04-20T18:51:35.698Z,101135.36
2019-04-20T18:55:51.548Z,101133.62
2019-04-20T18:59:55.294Z,101124.19
2019-04-20T19:04:03.773Z,101124.66
2019-04-20T19:08:14.478Z,101119.84
2019-04-20T19:12:34.534Z,101125.53
2019-04-20T19:16:56.815Z,101116.45
2019-04-20T19:21:01.272Z,101118.25
2019-04-20T19:25:19.833Z,101110.39
2019-04-20T19:29:31.315Z,101107.74
2019-04-20T19:33:52.282Z,101103.86
2019-04-20T19:37:50.392Z,101107.36
2019-04-20T19:41:59.634Z,101102.66
2019-04-20T19:50:35.539Z,101108.02
2019-04-20T19:54:42.619Z,101110.48
2019-04-20T19:58:39.815Z,101107.17
2019-04-20T20:02:39.545Z,101099.86
2019-04-20T20:06:55.882Z,101097.01
2019-04-20T20:11:00.878Z,101095.52
2019-04-20T20:15:14.235Z,101099.98
2019-04-20T20:19:32.726Z,101102.03
2019-04-20T20:23:27.919Z,101095.27
2019-04-20T20:27:46.924Z,101092.65
2019-04-20T20:31:58.256Z,101088.34
2019-04-20T20:36:04.220Z,101082.48
2019-04-20T20:40:16.122Z,101080.51
2019-04-20T20:44:28.555Z,101073.52
2019-04-20T20:48:39.922Z,101075.48
2019-04-20T20:52:50.588Z,101075.13
2019-04-20T20:56:49.976Z,101079.15
2019-04-20T21:01:03.646Z,101079.32
2019-04-20T21:05:03.826Z,101072.41
2019-04-20T21:09:12.567Z,101076.83
2019-04-20T21:13:28.368Z,101079.61
2019-04-20T21:17:41.539Z,101076.39
2019-04-20T21:21:50.379Z,101070.06
2019-04-20T21:26:11.526Z,101069.61
2019-04-20T21:30:25.161Z,101064.19
2019-04-20T21:34:27.407Z,101054.37
2019-04-20T21:38:39.338Z,101054.00
2019-04-20T21:42:52.478Z,101050.41
2019-04-20T21:46:56.298Z,101045.34
2019-04-20T21:51:19.118Z,101041.68
2019-04-20T21:55:16.237Z,101040.91
2019-04-20T21:59:30.897Z,101046.13
2019-04-20T22:03:34.400Z,101039.08
2019-04-20T22:07:42.271Z,101035.08
2019-04-20T22:11:49.985Z,101039.02
2019-04-20T22:16:06.005Z,101035.28
2019-04-20T22:20:20.213Z,101033.36
2019-04-20T22:24:34.234Z,101029.64
2019-04-20T22:28:29.724Z,101025.12
2019-04-20T22:32:44.180Z,101015.37
2019-04-20T22:36:48.701Z,101004.84
2019-04-20T22:41:05.609Z,101007.16
2019-04-20T22:45:10.611Z,100995.94
2019-04-20T22:49:35.107Z,101000.27
2019-04-20T22:53:42.880Z,100992.06
2019-04-20T22:57:51.851Z,100989.21
2019-04-20T23:01:51.417Z,100985.87
2019-04-20T23:05:54.515Z,100986.63
2019-04-20T23:10:03.745Z,100991.74
2019-04-20T23:14:12.244Z,100991.91
2019-04-20T23:18:20.300Z,100992.34
2019-04-20T23:22:36.842Z,100990.97
2019-04-20T23:26:42.140Z,100986.94
2019-04-20T23:30:54.300Z,100989.72
2019-04-20T23:35:03.735Z,100979.45
2019-04-20T23:39:08.672Z,100972.77
2019-04-20T23:43:25.370Z,100974.64
2019-04-20T23:47:38.600Z,100979.34
2019-04-20T23:52:05.895Z,100980.38
2019-04-20T23:55:55.098Z,100977.70
